createdAt,value
2023-06-19T00:04:43.248Z,61.83
2023-06-19T00:09:49.909Z,61.13
2023-06-19T00:14:57.081Z,59.70
2023-06-19T00:20:04.326Z,60.30
2023-06-19T00:25:11.847Z,60.73
2023-06-19T00:30:19.208Z,60.95
2023-06-19T00:35:26.567Z,61.30
2023-06-19T00:40:36.141Z,65.60
2023-06-19T00:45:44.575Z,61.60
2023-06-19T00:50:53.877Z,60.90
2023-06-19T00:56:02.281Z,61.10
2023-06-19T01:01:10.146Z,60.73
2023-06-19T01:06:24.539Z,60.30
2023-06-19T01:11:36.558Z,59.98
2023-06-19T01:16:44.702Z,60.13
2023-06-19T01:21:52.044Z,60.13
2023-06-19T01:26:58.792Z,60.00
2023-06-19T01:32:11.009Z,60.20
2023-06-19T01:37:18.439Z,60.40
2023-06-19T01:42:25.440Z,59.50
2023-06-19T01:47:32.345Z,59.85
2023-06-19T01:52:41.810Z,62.07
2023-06-19T01:57:49.205Z,59.03
2023-06-19T02:02:55.923Z,59.23
2023-06-19T02:08:04.237Z,59.00
2023-06-19T02:13:11.218Z,59.43
2023-06-19T02:18:18.470Z,59.20
2023-06-19T02:28:33.089Z,58.38
2023-06-19T02:33:40.122Z,58.50
2023-06-19T02:38:47.808Z,59.30
2023-06-19T02:43:55.634Z,59.00
2023-06-19T02:49:03.099Z,58.73
2023-06-19T02:54:09.854Z,63.60
2023-06-19T02:59:17.340Z,59.27
2023-06-19T03:04:29.193Z,58.70
2023-06-19T03:09:36.583Z,59.27
2023-06-19T03:14:43.312Z,59.53
2023-06-19T03:19:51.359Z,59.10
2023-06-19T03:24:58.314Z,58.50
2023-06-19T03:30:07.852Z,59.70
2023-06-19T03:35:16.198Z,58.87
2023-06-19T03:40:23.985Z,59.88
2023-06-19T03:45:31.604Z,59.50
2023-06-19T03:50:38.524Z,60.23
2023-06-19T03:55:45.794Z,59.83
2023-06-19T04:00:53.626Z,60.97
2023-06-19T04:06:00.640Z,60.30
2023-06-19T04:11:07.474Z,60.57
2023-06-19T04:16:13.762Z,60.27
2023-06-19T04:26:27.306Z,60.83
2023-06-19T04:31:35.154Z,61.00
2023-06-19T04:36:42.471Z,61.23
2023-06-19T04:41:49.350Z,61.67
2023-06-19T04:46:57.888Z,62.30
2023-06-19T04:52:04.885Z,64.90
2023-06-19T04:57:12.159Z,69.07
2023-06-19T05:02:18.982Z,69.97
2023-06-19T05:07:25.983Z,65.00
2023-06-19T05:12:33.453Z,65.00
2023-06-19T05:17:40.451Z,77.40
2023-06-19T05:22:47.329Z,66.60
2023-06-19T05:27:54.010Z,66.23
2023-06-19T05:33:01.738Z,65.10
2023-06-19T05:38:08.654Z,66.43
2023-06-19T05:43:17.839Z,67.10
2023-06-19T05:48:26.347Z,68.37
2023-06-19T05:53:33.313Z,67.30
2023-06-19T05:58:40.781Z,66.30
2023-06-19T06:03:47.678Z,70.43
2023-06-19T06:08:56.844Z,70.00
2023-06-19T06:14:03.592Z,69.67
2023-06-19T06:19:11.018Z,70.50
2023-06-19T06:24:19.116Z,71.60
2023-06-19T06:29:25.953Z,70.90
2023-06-19T06:34:33.661Z,70.57
2023-06-19T06:39:41.837Z,70.60
2023-06-19T06:44:49.069Z,72.43
2023-06-19T06:49:56.638Z,72.43
2023-06-19T06:55:04.113Z,70.40
2023-06-19T07:00:12.708Z,69.30
2023-06-19T07:05:19.674Z,69.27
2023-06-19T07:10:26.976Z,70.97
2023-06-19T07:15:34.452Z,70.87
2023-06-19T07:20:41.512Z,70.63
2023-06-19T07:25:49.908Z,71.20
2023-06-19T07:30:56.812Z,72.07
2023-06-19T07:36:07.179Z,80.10
2023-06-19T07:41:14.850Z,75.33
2023-06-19T07:46:21.642Z,74.14
2023-06-19T07:51:29.044Z,77.82
2023-06-19T07:56:36.575Z,73.95
2023-06-19T08:01:43.597Z,76.67
2023-06-19T08:06:51.013Z,74.33
2023-06-19T08:11:58.358Z,75.07
2023-06-19T08:17:06.754Z,75.55
2023-06-19T08:22:13.743Z,75.90
2023-06-19T08:27:20.607Z,77.60
2023-06-19T08:32:28.247Z,76.40
2023-06-19T08:37:35.729Z,75.12
2023-06-19T08:42:44.725Z,74.03
2023-06-19T08:47:52.023Z,73.13
2023-06-19T08:52:59.784Z,77.07
2023-06-19T08:58:07.641Z,75.97
2023-06-19T09:03:16.305Z,75.93
2023-06-19T09:08:25.381Z,74.77
2023-06-19T09:13:34.521Z,73.80
2023-06-19T09:18:49.875Z,75.73
2023-06-19T09:23:56.817Z,74.27
2023-06-19T09:29:21.776Z,73.63
2023-06-19T09:34:28.757Z,73.62
2023-06-19T09:39:38.578Z,75.12
2023-06-19T09:44:47.313Z,75.30
2023-06-19T09:49:59.013Z,76.40
2023-06-19T09:55:11.083Z,75.83
2023-06-19T10:00:20.839Z,76.23
2023-06-19T10:05:36.888Z,78.63
2023-06-19T10:10:51.070Z,77.57
2023-06-19T10:15:58.267Z,77.77
2023-06-19T10:21:05.385Z,78.72
2023-06-19T10:26:15.418Z,77.20
2023-06-19T10:31:22.082Z,75.93
2023-06-19T10:36:29.399Z,76.10
2023-06-19T10:41:36.624Z,78.02
2023-06-19T10:46:43.963Z,77.40
2023-06-19T10:51:52.196Z,76.80
2023-06-19T10:56:59.698Z,76.67
2023-06-19T11:02:07.628Z,77.03
2023-06-19T11:07:15.183Z,76.77
2023-06-19T11:12:24.527Z,78.30
2023-06-19T11:17:32.350Z,75.67
2023-06-19T11:22:42.030Z,75.32
2023-06-19T11:27:51.121Z,76.20
2023-06-19T11:32:58.248Z,74.87
2023-06-19T11:38:08.491Z,75.67
2023-06-19T11:43:18.072Z,75.37
2023-06-19T11:48:27.157Z,74.62
2023-06-19T11:53:34.800Z,75.57
2023-06-19T11:58:41.826Z,78.03
2023-06-19T12:03:50.197Z,76.50
2023-06-19T12:08:57.913Z,75.80
2023-06-19T12:14:06.154Z,76.30
2023-06-19T12:19:20.680Z,76.53
2023-06-19T12:24:22.021Z,76.86
2023-06-19T12:29:29.005Z,76.90
2023-06-19T12:34:36.073Z,77.63
2023-06-19T12:39:44.249Z,76.57
2023-06-19T12:44:51.384Z,75.73
2023-06-19T12:49:58.395Z,78.57
2023-06-19T12:55:06.007Z,76.45
2023-06-19T13:00:16.739Z,74.33
2023-06-19T13:05:24.297Z,78.27
2023-06-19T13:10:32.291Z,76.62
2023-06-19T13:15:40.178Z,75.65
2023-06-19T13:20:49.461Z,80.57
2023-06-19T13:25:56.708Z,77.87
2023-06-19T13:31:04.340Z,78.17
2023-06-19T13:36:12.403Z,77.33
2023-06-19T13:41:19.428Z,76.37
2023-06-19T13:46:26.203Z,78.57
2023-06-19T13:51:33.975Z,77.07
2023-06-19T13:56:41.307Z,77.00
2023-06-19T14:01:48.372Z,76.20
2023-06-19T14:06:56.210Z,77.93
2023-06-19T14:12:03.177Z,76.63
2023-06-19T14:17:10.563Z,76.57
2023-06-19T14:22:18.998Z,80.85
2023-06-19T14:27:25.866Z,76.97
2023-06-19T14:32:33.101Z,76.87
2023-06-19T14:37:40.377Z,75.57
2023-06-19T14:42:48.245Z,79.47
2023-06-19T14:47:55.434Z,78.40
2023-06-19T14:53:02.740Z,77.82
2023-06-19T14:58:10.003Z,78.05
2023-06-19T15:03:17.861Z,77.42
2023-06-19T15:08:25.432Z,77.87
2023-06-19T15:13:33.903Z,77.00
2023-06-19T15:18:41.054Z,76.00
2023-06-19T15:23:48.228Z,78.80
2023-06-19T15:28:55.392Z,76.93
2023-06-19T15:34:02.473Z,78.00
2023-06-19T15:39:09.748Z,80.60
2023-06-19T15:44:17.982Z,76.97
2023-06-19T15:49:24.864Z,79.40
2023-06-19T15:54:31.361Z,78.43
2023-06-19T15:59:39.138Z,77.80
2023-06-19T16:04:46.910Z,75.43
2023-06-19T16:09:55.863Z,78.57
2023-06-19T16:15:03.037Z,76.90
2023-06-19T16:20:12.425Z,75.97
2023-06-19T16:25:19.536Z,76.67
2023-06-19T16:30:27.637Z,75.15
2023-06-19T16:35:35.270Z,79.07
2023-06-19T16:40:42.444Z,78.27
2023-06-19T16:45:49.472Z,77.27
2023-06-19T16:50:56.985Z,76.17
2023-06-19T16:56:04.004Z,77.47
2023-06-19T17:01:13.201Z,80.83
2023-06-19T17:06:20.787Z,78.47
2023-06-19T17:11:28.744Z,78.30
2023-06-19T17:16:35.429Z,83.60
2023-06-19T17:21:43.054Z,79.57
2023-06-19T17:26:52.010Z,78.63
2023-06-19T17:32:00.570Z,78.13
2023-06-19T17:37:08.165Z,78.60
2023-06-19T17:42:15.405Z,80.77
2023-06-19T17:47:22.222Z,77.88
2023-06-19T17:52:31.195Z,77.65
2023-06-19T17:57:39.214Z,81.53
2023-06-19T18:02:47.770Z,77.37
2023-06-19T18:07:54.536Z,76.25
2023-06-19T18:13:02.870Z,77.53
2023-06-19T18:18:10.000Z,77.70
2023-06-19T18:23:18.397Z,78.46
2023-06-19T18:28:25.520Z,78.97
2023-06-19T18:33:33.686Z,79.55
2023-06-19T18:38:42.100Z,76.05
2023-06-19T18:43:49.147Z,77.30
2023-06-19T18:48:56.101Z,76.77
2023-06-19T18:54:03.650Z,77.00
2023-06-19T18:59:11.175Z,79.53
2023-06-19T19:04:19.505Z,76.92
2023-06-19T19:09:27.156Z,78.45
2023-06-19T19:14:34.380Z,76.67
2023-06-19T19:19:42.115Z,75.53
2023-06-19T19:24:49.666Z,79.13
2023-06-19T19:29:58.125Z,79.83
2023-06-19T19:35:05.681Z,79.63
2023-06-19T19:40:14.253Z,78.57
2023-06-19T19:45:21.255Z,78.57
2023-06-19T19:50:29.123Z,76.50
2023-06-19T19:55:36.102Z,75.90
2023-06-19T20:00:44.939Z,84.70
2023-06-19T20:05:52.471Z,77.05
2023-06-19T20:10:59.675Z,75.13
2023-06-19T20:16:07.267Z,77.13
2023-06-19T20:21:14.309Z,75.00
2023-06-19T20:26:21.708Z,74.17
2023-06-19T20:31:29.005Z,73.40
2023-06-19T20:36:36.944Z,73.80
2023-06-19T20:41:45.753Z,72.20
2023-06-19T20:46:53.865Z,72.08
2023-06-19T20:52:02.671Z,75.93
2023-06-19T20:57:10.268Z,102.23
2023-06-19T21:02:18.317Z,77.67
2023-06-19T21:07:26.049Z,70.90
2023-06-19T21:12:33.648Z,72.63
2023-06-19T21:17:41.521Z,72.03
2023-06-19T21:22:48.657Z,72.13
2023-06-19T21:27:56.283Z,71.30
2023-06-19T21:33:03.522Z,74.03
2023-06-19T21:38:12.838Z,70.97
2023-06-19T21:43:19.743Z,70.83
2023-06-19T21:48:30.058Z,70.45
2023-06-19T21:53:36.673Z,70.97
2023-06-19T21:58:44.109Z,69.30
2023-06-19T22:03:51.384Z,70.92
2023-06-19T22:09:00.518Z,71.77
2023-06-19T22:14:07.588Z,70.63
2023-06-19T22:19:14.768Z,70.00
2023-06-19T22:24:21.373Z,70.90
2023-06-19T22:29:32.192Z,68.57
2023-06-19T22:34:39.511Z,68.67
2023-06-19T22:39:47.457Z,69.73
2023-06-19T22:44:55.317Z,68.87
2023-06-19T22:50:04.031Z,70.37
2023-06-19T22:55:11.613Z,68.63
2023-06-19T23:00:19.810Z,69.55
2023-06-19T23:05:27.607Z,68.67
2023-06-19T23:10:34.357Z,69.60
2023-06-19T23:15:41.871Z,68.50
2023-06-19T23:20:48.655Z,67.83
2023-06-19T23:25:56.354Z,68.67
2023-06-19T23:31:03.847Z,70.00
2023-06-19T23:36:11.428Z,67.17
2023-06-19T23:41:19.999Z,67.40
2023-06-19T23:46:27.813Z,67.60
2023-06-19T23:51:36.314Z,69.77
2023-06-19T23:56:43.225Z,70.50
